sensor_id;sensor_type;location;lat;lon;timestamp;pressure;altitude;pressure_sealevel;temperature;humidity
65897;BME280;52677;50.898;10.854;2023-07-13T00:01:01;98331.84;;;15.02;100.00
65897;BME280;52677;50.898;10.854;2023-07-13T00:03:03;98331.50;;;14.96;100.00
65897;BME280;52677;50.898;10.854;2023-07-13T00:05:04;98331.91;;;14.95;100.00
65897;BME280;52677;50.898;10.854;2023-07-13T00:07:07;98348.19;;;15.00;100.00
65897;BME280;52677;50.898;10.854;2023-07-13T00:09:08;98344.56;;;15.03;100.00
65897;BME280;52677;50.898;10.854;2023-07-13T00:11:10;98349.41;;;14.99;100.00
65897;BME280;52677;50.898;10.854;2023-07-13T00:13:10;98348.19;;;14.96;100.00
65897;BME280;52677;50.898;10.854;2023-07-13T00:15:21;98355.34;;;14.97;100.00
65897;BME280;52677;50.898;10.854;2023-07-13T00:17:23;98355.41;;;14.94;100.00
65897;BME280;52677;50.898;10.854;2023-07-13T00:19:24;98368.13;;;14.95;100.00
65897;BME280;52677;50.898;10.854;2023-07-13T00:21:24;98376.47;;;14.98;100.00
65897;BME280;52677;50.898;10.854;2023-07-13T00:23:25;98378.44;;;15.01;100.00
65897;BME280;52677;50.898;10.854;2023-07-13T00:25:25;98373.63;;;15.02;100.00
65897;BME280;52677;50.898;10.854;2023-07-13T00:27:28;98369.22;;;15.08;100.00
65897;BME280;52677;50.898;10.854;2023-07-13T00:29:30;98375.91;;;15.14;100.00
65897;BME280;52677;50.898;10.854;2023-07-13T00:31:30;98378.31;;;15.15;100.00
65897;BME280;52677;50.898;10.854;2023-07-13T00:33:31;98377.53;;;15.11;100.00
65897;BME280;52677;50.898;10.854;2023-07-13T00:35:31;98379.56;;;15.07;100.00
65897;BME280;52677;50.898;10.854;2023-07-13T00:37:32;98362.06;;;15.07;100.00
65897;BME280;52677;50.898;10.854;2023-07-13T00:39:34;98372.75;;;15.15;100.00
65897;BME280;52677;50.898;10.854;2023-07-13T00:41:35;98365.19;;;15.16;100.00
65897;BME280;52677;50.898;10.854;2023-07-13T00:43:37;98367.16;;;15.15;100.00
65897;BME280;52677;50.898;10.854;2023-07-13T00:47:43;98363.13;;;15.20;100.00
65897;BME280;52677;50.898;10.854;2023-07-13T00:49:44;98358.75;;;15.23;100.00
65897;BME280;52677;50.898;10.854;2023-07-13T00:51:49;98356.34;;;15.25;100.00
65897;BME280;52677;50.898;10.854;2023-07-13T00:53:53;98360.28;;;15.27;100.00
65897;BME280;52677;50.898;10.854;2023-07-13T00:55:54;98359.91;;;15.25;100.00
65897;BME280;52677;50.898;10.854;2023-07-13T00:57:55;98354.75;;;15.24;100.00
65897;BME280;52677;50.898;10.854;2023-07-13T00:59:58;98343.53;;;15.31;100.00
65897;BME280;52677;50.898;10.854;2023-07-13T01:02:00;98347.13;;;15.31;100.00
65897;BME280;52677;50.898;10.854;2023-07-13T01:04:01;98339.19;;;15.26;100.00
65897;BME280;52677;50.898;10.854;2023-07-13T01:06:01;98330.88;;;15.23;100.00
65897;BME280;52677;50.898;10.854;2023-07-13T01:08:02;98331.38;;;15.10;100.00
65897;BME280;52677;50.898;10.854;2023-07-13T01:10:05;98344.94;;;15.08;100.00
65897;BME280;52677;50.898;10.854;2023-07-13T01:12:07;98353.72;;;15.03;100.00
65897;BME280;52677;50.898;10.854;2023-07-13T01:14:08;98353.41;;;14.94;100.00
65897;BME280;52677;50.898;10.854;2023-07-13T01:16:16;98361.81;;;14.91;100.00
65897;BME280;52677;50.898;10.854;2023-07-13T01:18:22;98357.06;;;14.84;100.00
65897;BME280;52677;50.898;10.854;2023-07-13T01:20:24;98349.56;;;14.77;100.00
65897;BME280;52677;50.898;10.854;2023-07-13T01:22:25;98357.13;;;14.77;100.00
65897;BME280;52677;50.898;10.854;2023-07-13T01:24:26;98367.50;;;14.69;100.00
65897;BME280;52677;50.898;10.854;2023-07-13T01:26:27;98371.91;;;14.63;100.00
65897;BME280;52677;50.898;10.854;2023-07-13T01:28:28;98364.06;;;14.51;100.00
65897;BME280;52677;50.898;10.854;2023-07-13T01:30:28;98353.34;;;14.49;100.00
65897;BME280;52677;50.898;10.854;2023-07-13T01:32:29;98357.69;;;14.50;100.00
65897;BME280;52677;50.898;10.854;2023-07-13T01:34:31;98356.97;;;14.32;100.00
65897;BME280;52677;50.898;10.854;2023-07-13T01:36:31;98359.34;;;14.30;100.00
65897;BME280;52677;50.898;10.854;2023-07-13T01:38:32;98358.22;;;14.24;100.00
65897;BME280;52677;50.898;10.854;2023-07-13T01:40:32;98361.00;;;14.20;100.00
65897;BME280;52677;50.898;10.854;2023-07-13T01:42:33;98355.06;;;14.18;100.00
65897;BME280;52677;50.898;10.854;2023-07-13T01:44:33;98357.47;;;14.16;100.00
65897;BME280;52677;50.898;10.854;2023-07-13T01:46:33;98357.47;;;14.13;100.00
65897;BME280;52677;50.898;10.854;2023-07-13T01:48:34;98357.88;;;14.11;100.00
65897;BME280;52677;50.898;10.854;2023-07-13T01:50:34;98353.88;;;14.12;100.00
65897;BME280;52677;50.898;10.854;2023-07-13T01:52:35;98364.59;;;14.17;100.00
65897;BME280;52677;50.898;10.854;2023-07-13T01:54:35;98369.75;;;14.19;100.00
65897;BME280;52677;50.898;10.854;2023-07-13T01:56:35;98365.78;;;14.23;100.00
65897;BME280;52677;50.898;10.854;2023-07-13T01:58:35;98366.56;;;14.24;100.00
65897;BME280;52677;50.898;10.854;2023-07-13T02:00:36;98364.94;;;14.30;100.00
65897;BME280;52677;50.898;10.854;2023-07-13T02:02:36;98369.72;;;14.26;100.00
65897;BME280;52677;50.898;10.854;2023-07-13T02:04:36;98373.31;;;14.23;100.00
65897;BME280;52677;50.898;10.854;2023-07-13T02:06:37;98361.78;;;14.24;100.00
65897;BME280;52677;50.898;10.854;2023-07-13T02:08:37;98370.53;;;14.26;100.00
65897;BME280;52677;50.898;10.854;2023-07-13T02:10:37;98370.53;;;14.26;100.00
65897;BME280;52677;50.898;10.854;2023-07-13T02:12:38;98374.91;;;14.24;100.00
65897;BME280;52677;50.898;10.854;2023-07-13T02:14:39;98370.56;;;14.19;100.00
65897;BME280;52677;50.898;10.854;2023-07-13T02:16:39;98374.91;;;14.20;100.00
65897;BME280;52677;50.898;10.854;2023-07-13T02:18:40;98378.09;;;14.19;100.00
65897;BME280;52677;50.898;10.854;2023-07-13T02:20:40;98362.22;;;14.16;100.00
65897;BME280;52677;50.898;10.854;2023-07-13T02:22:40;98362.59;;;14.21;100.00
65897;BME280;52677;50.898;10.854;2023-07-13T02:24:40;98368.56;;;14.23;100.00
65897;BME280;52677;50.898;10.854;2023-07-13T02:26:41;98365.75;;;14.27;100.00
65897;BME280;52677;50.898;10.854;2023-07-13T02:28:41;98373.28;;;14.30;100.00
65897;BME280;52677;50.898;10.854;2023-07-13T02:30:41;98368.91;;;14.32;100.00
65897;BME280;52677;50.898;10.854;2023-07-13T02:32:42;98371.28;;;14.34;100.00
65897;BME280;52677;50.898;10.854;2023-07-13T02:34:43;98376.06;;;14.33;100.00
65897;BME280;52677;50.898;10.854;2023-07-13T02:36:44;98369.28;;;14.34;100.00
65897;BME280;52677;50.898;10.854;2023-07-13T02:38:44;98375.22;;;14.37;100.00
65897;BME280;52677;50.898;10.854;2023-07-13T02:40:46;98377.19;;;14.40;100.00
65897;BME280;52677;50.898;10.854;2023-07-13T02:42:46;98381.97;;;14.43;100.00
65897;BME280;52677;50.898;10.854;2023-07-13T02:44:46;98370.41;;;14.44;100.00
65897;BME280;52677;50.898;10.854;2023-07-13T02:46:47;98370.03;;;14.46;100.00
65897;BME280;52677;50.898;10.854;2023-07-13T02:48:47;98376.41;;;14.39;100.00
65897;BME280;52677;50.898;10.854;2023-07-13T02:50:47;98370.09;;;14.31;100.00
65897;BME280;52677;50.898;10.854;2023-07-13T02:52:47;98375.69;;;14.28;100.00
65897;BME280;52677;50.898;10.854;2023-07-13T02:54:48;98378.06;;;14.26;100.00
65897;BME280;52677;50.898;10.854;2023-07-13T02:56:48;98380.06;;;14.25;100.00
65897;BME280;52677;50.898;10.854;2023-07-13T02:58:49;98378.88;;;14.26;100.00
65897;BME280;52677;50.898;10.854;2023-07-13T03:00:49;98387.56;;;14.36;100.00
65897;BME280;52677;50.898;10.854;2023-07-13T03:02:50;98381.19;;;14.46;100.00
65897;BME280;52677;50.898;10.854;2023-07-13T03:04:50;98382.34;;;14.52;100.00
65897;BME280;52677;50.898;10.854;2023-07-13T03:06:50;98387.88;;;14.59;100.00
65897;BME280;52677;50.898;10.854;2023-07-13T03:08:51;98389.81;;;14.66;100.00
65897;BME280;52677;50.898;10.854;2023-07-13T03:11:03;98385.84;;;14.67;100.00
65897;BME280;52677;50.898;10.854;2023-07-13T03:13:03;98383.00;;;14.70;100.00
65897;BME280;52677;50.898;10.854;2023-07-13T03:15:04;98391.41;;;14.67;100.00
65897;BME280;52677;50.898;10.854;2023-07-13T03:17:04;98393.81;;;14.65;100.00
65897;BME280;52677;50.898;10.854;2023-07-13T03:19:05;98398.19;;;14.66;100.00
65897;BME280;52677;50.898;10.854;2023-07-13T03:21:05;98391.03;;;14.65;100.00
65897;BME280;52677;50.898;10.854;2023-07-13T03:23:06;98400.56;;;14.64;100.00
65897;BME280;52677;50.898;10.854;2023-07-13T03:25:06;98399.38;;;14.65;100.00
65897;BME280;52677;50.898;10.854;2023-07-13T03:27:07;98403.75;;;14.66;100.00
65897;BME280;52677;50.898;10.854;2023-07-13T03:29:07;98406.09;;;14.71;100.00
65897;BME280;52677;50.898;10.854;2023-07-13T03:31:11;98417.59;;;14.76;100.00
65897;BME280;52677;50.898;10.854;2023-07-13T03:33:12;98413.56;;;14.81;100.00
65897;BME280;52677;50.898;10.854;2023-07-13T03:35:12;98418.75;;;14.82;100.00
65897;BME280;52677;50.898;10.854;2023-07-13T03:37:12;98412.41;;;14.82;100.00
65897;BME280;52677;50.898;10.854;2023-07-13T03:39:13;98417.97;;;14.82;100.00
65897;BME280;52677;50.898;10.854;2023-07-13T03:41:14;98411.19;;;14.83;100.00
65897;BME280;52677;50.898;10.854;2023-07-13T03:43:15;98418.75;;;14.82;100.00
65897;BME280;52677;50.898;10.854;2023-07-13T03:45:15;98423.91;;;14.80;100.00
65897;BME280;52677;50.898;10.854;2023-07-13T03:47:15;98409.25;;;14.76;100.00
65897;BME280;52677;50.898;10.854;2023-07-13T03:49:16;98416.00;;;14.75;100.00
65897;BME280;52677;50.898;10.854;2023-07-13T03:51:17;98417.59;;;14.73;100.00
65897;BME280;52677;50.898;10.854;2023-07-13T03:53:17;98410.06;;;14.73;100.00
65897;BME280;52677;50.898;10.854;2023-07-13T03:55:19;98414.84;;;14.69;100.00
65897;BME280;52677;50.898;10.854;2023-07-13T03:57:19;98415.63;;;14.70;100.00
65897;BME280;52677;50.898;10.854;2023-07-13T03:59:19;98420.41;;;14.69;100.00
65897;BME280;52677;50.898;10.854;2023-07-13T04:01:21;98420.47;;;14.66;100.00
65897;BME280;52677;50.898;10.854;2023-07-13T04:03:22;98422.03;;;14.63;100.00
65897;BME280;52677;50.898;10.854;2023-07-13T04:05:23;98423.25;;;14.62;100.00
65897;BME280;52677;50.898;10.854;2023-07-13T04:07:23;98425.22;;;14.61;100.00
65897;BME280;52677;50.898;10.854;2023-07-13T04:09:24;98422.06;;;14.59;100.00
65897;BME280;52677;50.898;10.854;2023-07-13T04:11:27;98430.84;;;14.58;100.00
65897;BME280;52677;50.898;10.854;2023-07-13T04:13:28;98436.00;;;14.59;100.00
65897;BME280;52677;50.898;10.854;2023-07-13T04:15:30;98430.81;;;14.65;100.00
65897;BME280;52677;50.898;10.854;2023-07-13T04:17:31;98437.13;;;14.69;100.00
65897;BME280;52677;50.898;10.854;2023-07-13T04:19:31;98434.31;;;14.73;100.00
65897;BME280;52677;50.898;10.854;2023-07-13T04:21:31;98437.06;;;14.80;100.00
65897;BME280;52677;50.898;10.854;2023-07-13T04:23:32;98440.25;;;14.82;100.00
65897;BME280;52677;50.898;10.854;2023-07-13T04:25:32;98426.72;;;14.80;100.00
65897;BME280;52677;50.898;10.854;2023-07-13T04:27:32;98437.44;;;14.85;100.00
65897;BME280;52677;50.898;10.854;2023-07-13T04:29:33;98447.75;;;14.88;100.00
65897;BME280;52677;50.898;10.854;2023-07-13T04:31:33;98439.44;;;14.85;100.00
65897;BME280;52677;50.898;10.854;2023-07-13T04:33:33;98449.78;;;14.81;100.00
65897;BME280;52677;50.898;10.854;2023-07-13T04:35:34;98443.81;;;14.82;100.00
65897;BME280;52677;50.898;10.854;2023-07-13T04:37:35;98445.41;;;14.83;100.00
65897;BME280;52677;50.898;10.854;2023-07-13T04:39:35;98442.16;;;14.88;99.54
65897;BME280;52677;50.898;10.854;2023-07-13T04:41:36;98449.28;;;14.97;99.08
65897;BME280;52677;50.898;10.854;2023-07-13T04:43:36;98437.69;;;15.05;99.13
65897;BME280;52677;50.898;10.854;2023-07-13T04:45:36;98450.31;;;15.21;98.58
65897;BME280;52677;50.898;10.854;2023-07-13T04:47:37;98446.69;;;15.31;97.93
65897;BME280;52677;50.898;10.854;2023-07-13T04:49:37;98449.00;;;15.39;97.50
65897;BME280;52677;50.898;10.854;2023-07-13T04:51:37;98446.59;;;15.41;97.28
65897;BME280;52677;50.898;10.854;2023-07-13T04:53:37;98450.91;;;15.46;96.93
65897;BME280;52677;50.898;10.854;2023-07-13T04:55:38;98456.53;;;15.42;96.91
65897;BME280;52677;50.898;10.854;2023-07-13T04:57:38;98447.00;;;15.40;97.71
65897;BME280;52677;50.898;10.854;2023-07-13T04:59:38;98447.06;;;15.29;97.99
65897;BME280;52677;50.898;10.854;2023-07-13T05:01:39;98450.25;;;15.28;98.59
65897;BME280;52677;50.898;10.854;2023-07-13T05:03:40;98451.47;;;15.27;98.82
65897;BME280;52677;50.898;10.854;2023-07-13T05:05:41;98442.72;;;15.25;99.07
65897;BME280;52677;50.898;10.854;2023-07-13T05:07:41;98441.94;;;15.24;99.42
65897;BME280;52677;50.898;10.854;2023-07-13T05:09:41;98453.41;;;15.33;99.23
65897;BME280;52677;50.898;10.854;2023-07-13T05:11:43;98453.75;;;15.39;98.89
65897;BME280;52677;50.898;10.854;2023-07-13T05:13:44;98450.91;;;15.46;98.89
65897;BME280;52677;50.898;10.854;2023-07-13T05:15:45;98453.63;;;15.57;98.04
65897;BME280;52677;50.898;10.854;2023-07-13T05:17:45;98455.13;;;15.68;97.47
65897;BME280;52677;50.898;10.854;2023-07-13T05:19:45;98453.44;;;15.78;97.36
65897;BME280;52677;50.898;10.854;2023-07-13T05:21:46;98451.75;;;15.88;96.96
65897;BME280;52677;50.898;10.854;2023-07-13T05:23:47;98463.13;;;16.04;96.51
65897;BME280;52677;50.898;10.854;2023-07-13T05:25:47;98462.63;;;16.16;96.21
65897;BME280;52677;50.898;10.854;2023-07-13T05:27:47;98462.13;;;16.25;95.14
65897;BME280;52677;50.898;10.854;2023-07-13T05:29:48;98457.25;;;16.33;95.27
65897;BME280;52677;50.898;10.854;2023-07-13T05:31:49;98460.28;;;16.45;94.83
65897;BME280;52677;50.898;10.854;2023-07-13T05:33:50;98457.38;;;16.56;94.04
65897;BME280;52677;50.898;10.854;2023-07-13T05:35:50;98461.59;;;16.68;93.41
65897;BME280;52677;50.898;10.854;2023-07-13T05:37:51;98464.25;;;16.78;92.02
65897;BME280;52677;50.898;10.854;2023-07-13T05:39:51;98459.78;;;16.84;90.80
65897;BME280;52677;50.898;10.854;2023-07-13T05:41:52;98462.84;;;16.94;90.87
65897;BME280;52677;50.898;10.854;2023-07-13T05:43:52;98459.25;;;16.97;90.98
65897;BME280;52677;50.898;10.854;2023-07-13T05:45:54;98460.72;;;17.05;90.59
65897;BME280;52677;50.898;10.854;2023-07-13T05:47:54;98462.19;;;17.13;90.61
65897;BME280;52677;50.898;10.854;2023-07-13T05:49:55;98457.66;;;17.23;90.26
65897;BME280;52677;50.898;10.854;2023-07-13T05:51:55;98462.31;;;17.29;90.53
65897;BME280;52677;50.898;10.854;2023-07-13T05:53:55;98459.47;;;17.33;90.89
65897;BME280;52677;50.898;10.854;2023-07-13T05:55:56;98461.31;;;17.43;91.02
65897;BME280;52677;50.898;10.854;2023-07-13T05:57:57;98467.47;;;17.58;90.52
65897;BME280;52677;50.898;10.854;2023-07-13T05:59:58;98464.59;;;17.61;88.90
65897;BME280;52677;50.898;10.854;2023-07-13T06:01:58;98465.25;;;17.73;89.94
65897;BME280;52677;50.898;10.854;2023-07-13T06:03:58;98459.53;;;17.80;88.87
65897;BME280;52677;50.898;10.854;2023-07-13T06:05:59;98464.84;;;17.94;89.41
65897;BME280;52677;50.898;10.854;2023-07-13T06:08:03;98464.69;;;18.05;86.28
65897;BME280;52677;50.898;10.854;2023-07-13T06:10:03;98463.69;;;18.15;85.71
65897;BME280;52677;50.898;10.854;2023-07-13T06:12:04;98464.25;;;18.26;86.35
65897;BME280;52677;50.898;10.854;2023-07-13T06:14:05;98471.94;;;18.42;85.71
65897;BME280;52677;50.898;10.854;2023-07-13T06:16:06;98466.63;;;18.47;84.52
65897;BME280;52677;50.898;10.854;2023-07-13T06:18:07;98467.19;;;18.59;84.09
65897;BME280;52677;50.898;10.854;2023-07-13T06:20:07;98467.88;;;18.66;82.57
65897;BME280;52677;50.898;10.854;2023-07-13T06:22:07;98472.25;;;18.67;81.78
65897;BME280;52677;50.898;10.854;2023-07-13T06:24:08;98468.06;;;18.75;82.39
65897;BME280;52677;50.898;10.854;2023-07-13T06:26:09;98471.16;;;18.81;79.67
65897;BME280;52677;50.898;10.854;2023-07-13T06:28:09;98471.50;;;18.83;79.45
65897;BME280;52677;50.898;10.854;2023-07-13T06:30:10;98474.59;;;18.89;79.22
65897;BME280;52677;50.898;10.854;2023-07-13T06:32:11;98473.22;;;18.97;80.79
65897;BME280;52677;50.898;10.854;2023-07-13T06:34:11;98472.53;;;19.09;78.97
65897;BME280;52677;50.898;10.854;2023-07-13T06:36:12;98467.91;;;19.19;78.78
65897;BME280;52677;50.898;10.854;2023-07-13T06:38:12;98477.81;;;19.23;76.76
65897;BME280;52677;50.898;10.854;2023-07-13T06:40:12;98475.28;;;19.29;76.05
65897;BME280;52677;50.898;10.854;2023-07-13T06:42:13;98484.34;;;19.36;74.76
65897;BME280;52677;50.898;10.854;2023-07-13T06:44:13;98486.16;;;19.43;74.88
65897;BME280;52677;50.898;10.854;2023-07-13T06:46:13;98477.56;;;19.34;74.71
65897;BME280;52677;50.898;10.854;2023-07-13T06:48:14;98482.91;;;19.28;75.65
65897;BME280;52677;50.898;10.854;2023-07-13T06:50:15;98474.13;;;19.26;74.64
65897;BME280;52677;50.898;10.854;2023-07-13T06:52:15;98481.53;;;19.36;74.43
65897;BME280;52677;50.898;10.854;2023-07-13T06:54:16;98477.06;;;19.39;75.38
65897;BME280;52677;50.898;10.854;2023-07-13T06:56:16;98481.72;;;19.46;75.29
65897;BME280;52677;50.898;10.854;2023-07-13T06:58:17;98485.41;;;19.59;75.05
65897;BME280;52677;50.898;10.854;2023-07-13T07:00:18;98486.03;;;19.67;74.21
65897;BME280;52677;50.898;10.854;2023-07-13T07:02:18;98483.31;;;19.63;72.41
65897;BME280;52677;50.898;10.854;2023-07-13T07:04:19;98486.03;;;19.67;72.83
65897;BME280;52677;50.898;10.854;2023-07-13T07:06:21;98483.22;;;19.67;72.87
65897;BME280;52677;50.898;10.854;2023-07-13T07:08:24;98493.03;;;19.75;73.58
65897;BME280;52677;50.898;10.854;2023-07-13T07:10:25;98480.50;;;19.79;73.43
65897;BME280;52677;50.898;10.854;2023-07-13T07:12:25;98483.91;;;19.87;73.16
65897;BME280;52677;50.898;10.854;2023-07-13T07:14:26;98484.88;;;19.97;72.59
65897;BME280;52677;50.898;10.854;2023-07-13T07:16:26;98498.28;;;20.05;72.23
65897;BME280;52677;50.898;10.854;2023-07-13T07:18:26;98490.72;;;20.02;71.96
65897;BME280;52677;50.898;10.854;2023-07-13T07:20:27;98499.84;;;20.06;73.60
65897;BME280;52677;50.898;10.854;2023-07-13T07:22:27;98495.28;;;20.12;72.75
65897;BME280;52677;50.898;10.854;2023-07-13T07:24:28;98494.31;;;20.19;74.02
65897;BME280;52677;50.898;10.854;2023-07-13T07:26:28;98493.44;;;20.06;73.38
65897;BME280;52677;50.898;10.854;2023-07-13T07:28:28;98502.22;;;20.08;72.73
65897;BME280;52677;50.898;10.854;2023-07-13T07:30:29;98501.41;;;20.07;73.29
65897;BME280;52677;50.898;10.854;2023-07-13T07:32:30;98507.31;;;20.13;73.13
65897;BME280;52677;50.898;10.854;2023-07-13T07:34:31;98491.13;;;20.17;73.57
65897;BME280;52677;50.898;10.854;2023-07-13T07:36:31;98500.00;;;20.15;73.64
65897;BME280;52677;50.898;10.854;2023-07-13T07:38:32;98496.31;;;20.18;74.03
65897;BME280;52677;50.898;10.854;2023-07-13T07:40:36;98499.97;;;20.32;71.92
65897;BME280;52677;50.898;10.854;2023-07-13T07:42:36;98492.84;;;20.27;72.29
65897;BME280;52677;50.898;10.854;2023-07-13T07:44:37;98497.50;;;20.34;72.72
65897;BME280;52677;50.898;10.854;2023-07-13T07:46:38;98497.75;;;20.39;73.08
65897;BME280;52677;50.898;10.854;2023-07-13T07:48:40;98502.31;;;20.50;71.88
65897;BME280;52677;50.898;10.854;2023-07-13T07:50:40;98496.25;;;20.51;70.50
65897;BME280;52677;50.898;10.854;2023-07-13T07:52:41;98491.56;;;20.61;71.17
65897;BME280;52677;50.898;10.854;2023-07-13T07:54:42;98494.94;;;20.68;69.09
65897;BME280;52677;50.898;10.854;2023-07-13T07:56:42;98499.34;;;20.69;69.01
65897;BME280;52677;50.898;10.854;2023-07-13T07:58:43;98502.94;;;20.70;69.35
65897;BME280;52677;50.898;10.854;2023-07-13T08:00:43;98491.66;;;20.57;68.00
65897;BME280;52677;50.898;10.854;2023-07-13T08:02:44;98493.66;;;20.44;68.38
65897;BME280;52677;50.898;10.854;2023-07-13T08:04:44;98490.97;;;20.53;69.23
65897;BME280;52677;50.898;10.854;2023-07-13T08:06:44;98508.13;;;20.71;69.77
65897;BME280;52677;50.898;10.854;2023-07-13T08:08:45;98498.25;;;20.92;56.16
65897;BME280;52677;50.898;10.854;2023-07-13T08:10:45;98500.09;;;21.12;56.24
65897;BME280;52677;50.898;10.854;2023-07-13T08:12:46;98496.44;;;21.27;57.27
65897;BME280;52677;50.898;10.854;2023-07-13T08:14:49;98497.94;;;21.16;56.35
65897;BME280;52677;50.898;10.854;2023-07-13T08:16:53;98505.84;;;21.21;56.86
65897;BME280;52677;50.898;10.854;2023-07-13T08:18:53;98502.91;;;21.12;55.75
65897;BME280;52677;50.898;10.854;2023-07-13T08:20:54;98502.06;;;21.27;57.29
65897;BME280;52677;50.898;10.854;2023-07-13T08:22:56;98510.38;;;21.44;56.78
65897;BME280;52677;50.898;10.854;2023-07-13T08:24:59;98505.84;;;21.59;56.43
65897;BME280;52677;50.898;10.854;2023-07-13T08:26:59;98503.94;;;21.56;54.96
65897;BME280;52677;50.898;10.854;2023-07-13T08:29:00;98500.78;;;21.67;55.02
65897;BME280;52677;50.898;10.854;2023-07-13T08:31:03;98500.69;;;21.70;54.82
65897;BME280;52677;50.898;10.854;2023-07-13T08:33:03;98503.47;;;21.83;54.58
65897;BME280;52677;50.898;10.854;2023-07-13T08:35:05;98503.91;;;21.94;54.63
65897;BME280;52677;50.898;10.854;2023-07-13T08:37:06;98506.28;;;21.96;54.65
65897;BME280;52677;50.898;10.854;2023-07-13T08:39:06;98487.56;;;21.89;53.01
65897;BME280;52677;50.898;10.854;2023-07-13T08:41:16;98502.44;;;21.90;52.59
65897;BME280;52677;50.898;10.854;2023-07-13T08:43:19;98500.41;;;22.03;52.41
65897;BME280;52677;50.898;10.854;2023-07-13T08:45:24;98504.81;;;21.91;52.73
65897;BME280;52677;50.898;10.854;2023-07-13T08:47:28;98509.31;;;21.88;53.15
65897;BME280;52677;50.898;10.854;2023-07-13T08:49:30;98502.56;;;21.86;53.08
65897;BME280;52677;50.898;10.854;2023-07-13T08:51:38;98508.41;;;21.92;53.69
65897;BME280;52677;50.898;10.854;2023-07-13T08:53:49;98500.97;;;21.98;52.84
65897;BME280;52677;50.898;10.854;2023-07-13T08:55:57;98509.50;;;22.07;52.49
65897;BME280;52677;50.898;10.854;2023-07-13T08:58:13;98501.28;;;22.12;53.55
65897;BME280;52677;50.898;10.854;2023-07-13T09:00:14;98497.88;;;22.18;53.43
65897;BME280;52677;50.898;10.854;2023-07-13T09:02:45;98497.97;;;22.27;52.29
65897;BME280;52677;50.898;10.854;2023-07-13T09:07:11;98495.78;;;22.43;50.24
65897;BME280;52677;50.898;10.854;2023-07-13T09:11:46;98508.13;;;22.24;51.54
65897;BME280;52677;50.898;10.854;2023-07-13T09:13:59;98508.09;;;22.37;48.49
65897;BME280;52677;50.898;10.854;2023-07-13T09:16:03;98512.78;;;22.18;48.66
65897;BME280;52677;50.898;10.854;2023-07-13T09:20:26;98512.97;;;22.24;49.96
65897;BME280;52677;50.898;10.854;2023-07-13T09:22:29;98520.69;;;22.45;50.47
65897;BME280;52677;50.898;10.854;2023-07-13T09:24:38;98502.72;;;22.52;50.31
65897;BME280;52677;50.898;10.854;2023-07-13T09:26:39;98513.66;;;22.71;48.09
65897;BME280;52677;50.898;10.854;2023-07-13T09:28:47;98524.00;;;22.87;50.20
65897;BME280;52677;50.898;10.854;2023-07-13T09:31:09;98523.53;;;23.11;47.96
65897;BME280;52677;50.898;10.854;2023-07-13T09:33:12;98511.38;;;23.32;47.66
65897;BME280;52677;50.898;10.854;2023-07-13T09:35:16;98512.84;;;23.46;47.57
65897;BME280;52677;50.898;10.854;2023-07-13T09:37:17;98517.88;;;23.42;46.23
65897;BME280;52677;50.898;10.854;2023-07-13T09:39:30;98522.22;;;23.03;46.17
65897;BME280;52677;50.898;10.854;2023-07-13T09:41:45;98532.13;;;22.51;47.04
65897;BME280;52677;50.898;10.854;2023-07-13T09:44:07;98527.97;;;22.55;48.59
65897;BME280;52677;50.898;10.854;2023-07-13T09:46:23;98525.84;;;22.47;48.23
65897;BME280;52677;50.898;10.854;2023-07-13T09:48:23;98526.09;;;22.39;47.50
65897;BME280;52677;50.898;10.854;2023-07-13T09:50:24;98529.91;;;22.46;49.45
65897;BME280;52677;50.898;10.854;2023-07-13T09:52:25;98528.88;;;22.52;47.76
65897;BME280;52677;50.898;10.854;2023-07-13T09:54:27;98527.81;;;22.59;46.35
65897;BME280;52677;50.898;10.854;2023-07-13T09:56:28;98526.66;;;22.91;45.44
65897;BME280;52677;50.898;10.854;2023-07-13T09:58:34;98542.34;;;23.14;45.83
65897;BME280;52677;50.898;10.854;2023-07-13T10:00:35;98542.50;;;22.88;45.25
65897;BME280;52677;50.898;10.854;2023-07-13T10:02:36;98529.88;;;22.80;43.40
65897;BME280;52677;50.898;10.854;2023-07-13T10:04:36;98536.72;;;22.92;43.72
65897;BME280;52677;50.898;10.854;2023-07-13T10:06:36;98529.63;;;22.87;44.59
65897;BME280;52677;50.898;10.854;2023-07-13T10:08:39;98521.06;;;22.56;44.42
65897;BME280;52677;50.898;10.854;2023-07-13T10:10:39;98535.84;;;22.60;45.78
65897;BME280;52677;50.898;10.854;2023-07-13T10:12:40;98532.16;;;22.73;44.68
65897;BME280;52677;50.898;10.854;2023-07-13T10:14:42;98531.53;;;23.12;45.87
65897;BME280;52677;50.898;10.854;2023-07-13T10:16:45;98530.91;;;23.48;42.55
65897;BME280;52677;50.898;10.854;2023-07-13T10:18:50;98534.16;;;23.69;44.26
65897;BME280;52677;50.898;10.854;2023-07-13T10:21:10;98541.31;;;24.01;43.39
65897;BME280;52677;50.898;10.854;2023-07-13T10:23:15;98538.22;;;24.17;43.50
65897;BME280;52677;50.898;10.854;2023-07-13T10:25:24;98521.38;;;24.14;42.81
65897;BME280;52677;50.898;10.854;2023-07-13T10:27:35;98529.09;;;24.13;42.71
65897;BME280;52677;50.898;10.854;2023-07-13T10:29:38;98521.97;;;23.99;42.59
65897;BME280;52677;50.898;10.854;2023-07-13T10:31:41;98527.75;;;23.46;43.46
65897;BME280;52677;50.898;10.854;2023-07-13T10:33:42;98539.28;;;23.30;44.32
65897;BME280;52677;50.898;10.854;2023-07-13T10:35:43;98531.28;;;23.29;44.41
65897;BME280;52677;50.898;10.854;2023-07-13T10:37:52;98537.88;;;23.25;44.71
65897;BME280;52677;50.898;10.854;2023-07-13T10:39:55;98538.25;;;23.15;44.40
65897;BME280;52677;50.898;10.854;2023-07-13T10:42:03;98531.53;;;23.12;44.08